首页
METAR-TAF:

METAR-TAF

机场 :

Vicksburg Tallulah Regional Airport

Tallulah / Vicksburg, 路易斯安那州, 美国

纬度: 32-20-53N, 经度: 091-01-48W, 海拔: 26米

当前天气观测

该预报发布于54分钟前的04:53 UTC
风速9节,风向
温度 2°C
湿度 64%
气压 1030 hPa
能見度: 16.1公里
天空无云

METAR: KTVR 220453Z AUTO 08009KT 10SM CLR 02/M04 A3042 RMK AO2 SLP309 T00221044

时间: 23:47 (05:47 UTC)


TAF: 丢失

超过4000个机场的气象观测和天气预报(METAR&TAF报告)。

可查询的气象台以黄色和红色小点在地图上表示。

将鼠标移到小点上方,可查看气象台名称。

然后点击查看天气观测和预报。

如需切换地图:点击带黑十字的绿色按钮放大地图;点击带横线的绿色按钮缩小地图;或者点击绿色箭头查看邻近地区的地图。


METAR-TAF: